sensor_id;sensor_type;location;lat;lon;timestamp;P1;durP1;ratioP1;P2;durP2;ratioP2
52838;SDS011;39219;53.678;9.856;2023-02-03T00:01:58;22.45;;;9.23;;
52838;SDS011;39219;53.678;9.856;2023-02-03T00:04:25;19.83;;;9.43;;
52838;SDS011;39219;53.678;9.856;2023-02-03T00:06:51;22.88;;;9.50;;
52838;SDS011;39219;53.678;9.856;2023-02-03T00:09:17;20.40;;;9.10;;
52838;SDS011;39219;53.678;9.856;2023-02-03T00:11:44;20.67;;;9.05;;
52838;SDS011;39219;53.678;9.856;2023-02-03T00:14:10;22.17;;;9.27;;
52838;SDS011;39219;53.678;9.856;2023-02-03T00:16:36;22.15;;;9.20;;
52838;SDS011;39219;53.678;9.856;2023-02-03T00:19:04;20.48;;;8.82;;
52838;SDS011;39219;53.678;9.856;2023-02-03T00:21:30;20.60;;;9.02;;
52838;SDS011;39219;53.678;9.856;2023-02-03T00:23:57;25.48;;;10.38;;
52838;SDS011;39219;53.678;9.856;2023-02-03T00:26:23;23.30;;;10.25;;
52838;SDS011;39219;53.678;9.856;2023-02-03T00:28:52;22.92;;;10.20;;
52838;SDS011;39219;53.678;9.856;2023-02-03T00:31:19;24.33;;;10.07;;
52838;SDS011;39219;53.678;9.856;2023-02-03T00:33:45;22.90;;;9.95;;
52838;SDS011;39219;53.678;9.856;2023-02-03T00:36:13;25.90;;;11.00;;
52838;SDS011;39219;53.678;9.856;2023-02-03T00:38:39;26.23;;;10.73;;
52838;SDS011;39219;53.678;9.856;2023-02-03T00:41:05;27.38;;;11.07;;
52838;SDS011;39219;53.678;9.856;2023-02-03T00:43:32;26.92;;;10.82;;
52838;SDS011;39219;53.678;9.856;2023-02-03T00:45:58;27.83;;;11.57;;
52838;SDS011;39219;53.678;9.856;2023-02-03T00:48:24;27.88;;;11.45;;
52838;SDS011;39219;53.678;9.856;2023-02-03T00:50:51;32.38;;;11.32;;
52838;SDS011;39219;53.678;9.856;2023-02-03T00:53:18;38.47;;;11.82;;
52838;SDS011;39219;53.678;9.856;2023-02-03T00:55:44;27.20;;;11.77;;
52838;SDS011;39219;53.678;9.856;2023-02-03T00:58:11;32.17;;;12.10;;
52838;SDS011;39219;53.678;9.856;2023-02-03T01:00:37;27.05;;;12.18;;
52838;SDS011;39219;53.678;9.856;2023-02-03T01:03:03;28.65;;;12.38;;
52838;SDS011;39219;53.678;9.856;2023-02-03T01:05:29;29.65;;;12.35;;
52838;SDS011;39219;53.678;9.856;2023-02-03T01:07:56;30.33;;;12.13;;
52838;SDS011;39219;53.678;9.856;2023-02-03T01:10:23;29.23;;;12.10;;
52838;SDS011;39219;53.678;9.856;2023-02-03T01:12:50;29.52;;;12.40;;
52838;SDS011;39219;53.678;9.856;2023-02-03T01:15:16;31.55;;;12.15;;
52838;SDS011;39219;53.678;9.856;2023-02-03T01:17:42;30.00;;;11.32;;
52838;SDS011;39219;53.678;9.856;2023-02-03T01:20:09;28.90;;;11.00;;
52838;SDS011;39219;53.678;9.856;2023-02-03T01:22:36;24.98;;;11.30;;
52838;SDS011;39219;53.678;9.856;2023-02-03T01:25:02;25.63;;;10.43;;
52838;SDS011;39219;53.678;9.856;2023-02-03T01:27:30;25.98;;;10.05;;
52838;SDS011;39219;53.678;9.856;2023-02-03T01:29:56;24.17;;;9.50;;
52838;SDS011;39219;53.678;9.856;2023-02-03T01:32:22;24.95;;;9.10;;
52838;SDS011;39219;53.678;9.856;2023-02-03T01:34:49;22.40;;;8.57;;
52838;SDS011;39219;53.678;9.856;2023-02-03T01:37:15;21.98;;;8.35;;
52838;SDS011;39219;53.678;9.856;2023-02-03T01:39:42;20.00;;;8.30;;
52838;SDS011;39219;53.678;9.856;2023-02-03T01:42:08;22.35;;;7.82;;
52838;SDS011;39219;53.678;9.856;2023-02-03T01:44:39;22.80;;;8.13;;
52838;SDS011;39219;53.678;9.856;2023-02-03T01:47:10;24.27;;;7.97;;
52838;SDS011;39219;53.678;9.856;2023-02-03T01:49:38;17.20;;;7.57;;
52838;SDS011;39219;53.678;9.856;2023-02-03T01:52:06;18.00;;;7.05;;
52838;SDS011;39219;53.678;9.856;2023-02-03T01:54:32;17.77;;;7.20;;
52838;SDS011;39219;53.678;9.856;2023-02-03T01:57:02;19.00;;;6.75;;
52838;SDS011;39219;53.678;9.856;2023-02-03T01:59:29;16.80;;;6.45;;
52838;SDS011;39219;53.678;9.856;2023-02-03T02:01:57;15.77;;;5.90;;
52838;SDS011;39219;53.678;9.856;2023-02-03T02:04:25;15.45;;;5.60;;
52838;SDS011;39219;53.678;9.856;2023-02-03T02:06:54;13.48;;;5.20;;
52838;SDS011;39219;53.678;9.856;2023-02-03T02:09:21;16.00;;;5.75;;
52838;SDS011;39219;53.678;9.856;2023-02-03T02:11:47;15.45;;;5.35;;
52838;SDS011;39219;53.678;9.856;2023-02-03T02:14:14;14.70;;;5.70;;
52838;SDS011;39219;53.678;9.856;2023-02-03T02:16:42;14.00;;;5.35;;
52838;SDS011;39219;53.678;9.856;2023-02-03T02:19:23;14.57;;;5.30;;
52838;SDS011;39219;53.678;9.856;2023-02-03T02:21:55;13.35;;;5.13;;
52838;SDS011;39219;53.678;9.856;2023-02-03T02:24:39;14.57;;;4.88;;
52838;SDS011;39219;53.678;9.856;2023-02-03T02:27:08;13.23;;;5.32;;
52838;SDS011;39219;53.678;9.856;2023-02-03T02:32:28;12.05;;;4.88;;
52838;SDS011;39219;53.678;9.856;2023-02-03T02:34:57;15.90;;;5.40;;
52838;SDS011;39219;53.678;9.856;2023-02-03T02:37:29;15.30;;;4.57;;
52838;SDS011;39219;53.678;9.856;2023-02-03T02:39:57;15.98;;;5.05;;
52838;SDS011;39219;53.678;9.856;2023-02-03T02:42:25;14.65;;;4.93;;
52838;SDS011;39219;53.678;9.856;2023-02-03T02:44:57;11.95;;;4.53;;
52838;SDS011;39219;53.678;9.856;2023-02-03T02:47:24;12.68;;;4.57;;
52838;SDS011;39219;53.678;9.856;2023-02-03T02:49:53;13.63;;;4.65;;
52838;SDS011;39219;53.678;9.856;2023-02-03T02:52:21;17.35;;;4.50;;
52838;SDS011;39219;53.678;9.856;2023-02-03T02:54:50;13.98;;;4.32;;
52838;SDS011;39219;53.678;9.856;2023-02-03T02:57:17;11.18;;;4.18;;
52838;SDS011;39219;53.678;9.856;2023-02-03T02:59:45;14.52;;;4.20;;
52838;SDS011;39219;53.678;9.856;2023-02-03T03:02:11;12.43;;;4.38;;
52838;SDS011;39219;53.678;9.856;2023-02-03T03:04:37;12.38;;;4.05;;
52838;SDS011;39219;53.678;9.856;2023-02-03T03:07:06;11.38;;;4.00;;
52838;SDS011;39219;53.678;9.856;2023-02-03T03:09:34;9.45;;;4.00;;
52838;SDS011;39219;53.678;9.856;2023-02-03T03:12:04;11.75;;;3.63;;
52838;SDS011;39219;53.678;9.856;2023-02-03T03:14:32;10.82;;;3.90;;
52838;SDS011;39219;53.678;9.856;2023-02-03T03:16:59;12.13;;;3.72;;
52838;SDS011;39219;53.678;9.856;2023-02-03T03:19:29;14.07;;;3.83;;
52838;SDS011;39219;53.678;9.856;2023-02-03T03:21:59;13.85;;;3.30;;
52838;SDS011;39219;53.678;9.856;2023-02-03T03:24:29;9.38;;;3.65;;
52838;SDS011;39219;53.678;9.856;2023-02-03T03:26:58;10.85;;;3.20;;
52838;SDS011;39219;53.678;9.856;2023-02-03T03:29:28;8.25;;;2.83;;
52838;SDS011;39219;53.678;9.856;2023-02-03T03:31:56;13.75;;;2.90;;
52838;SDS011;39219;53.678;9.856;2023-02-03T03:34:22;11.40;;;3.17;;
52838;SDS011;39219;53.678;9.856;2023-02-03T03:36:49;11.35;;;3.08;;
52838;SDS011;39219;53.678;9.856;2023-02-03T03:39:19;12.13;;;2.97;;
52838;SDS011;39219;53.678;9.856;2023-02-03T03:41:52;8.80;;;2.75;;
52838;SDS011;39219;53.678;9.856;2023-02-03T03:44:20;12.38;;;3.00;;
52838;SDS011;39219;53.678;9.856;2023-02-03T03:46:50;14.02;;;3.35;;
52838;SDS011;39219;53.678;9.856;2023-02-03T03:49:17;13.60;;;3.40;;
52838;SDS011;39219;53.678;9.856;2023-02-03T03:51:45;11.20;;;3.70;;
52838;SDS011;39219;53.678;9.856;2023-02-03T03:54:14;10.75;;;2.80;;
52838;SDS011;39219;53.678;9.856;2023-02-03T03:56:44;11.02;;;3.15;;
52838;SDS011;39219;53.678;9.856;2023-02-03T03:59:12;14.98;;;3.53;;
52838;SDS011;39219;53.678;9.856;2023-02-03T04:01:40;13.35;;;3.50;;
52838;SDS011;39219;53.678;9.856;2023-02-03T04:04:08;10.32;;;3.40;;
52838;SDS011;39219;53.678;9.856;2023-02-03T04:06:35;11.35;;;3.55;;
52838;SDS011;39219;53.678;9.856;2023-02-03T04:09:02;13.07;;;3.38;;
52838;SDS011;39219;53.678;9.856;2023-02-03T04:11:29;11.65;;;3.55;;
52838;SDS011;39219;53.678;9.856;2023-02-03T04:14:14;14.00;;;3.63;;
52838;SDS011;39219;53.678;9.856;2023-02-03T04:16:40;7.68;;;3.40;;
52838;SDS011;39219;53.678;9.856;2023-02-03T04:19:07;12.55;;;4.32;;
52838;SDS011;39219;53.678;9.856;2023-02-03T04:21:33;11.30;;;4.00;;
52838;SDS011;39219;53.678;9.856;2023-02-03T04:23:59;11.90;;;3.80;;
52838;SDS011;39219;53.678;9.856;2023-02-03T04:26:25;11.93;;;4.32;;
52838;SDS011;39219;53.678;9.856;2023-02-03T04:28:52;11.00;;;4.30;;
52838;SDS011;39219;53.678;9.856;2023-02-03T04:31:19;15.68;;;4.63;;
52838;SDS011;39219;53.678;9.856;2023-02-03T04:33:45;14.25;;;4.47;;
52838;SDS011;39219;53.678;9.856;2023-02-03T04:36:12;11.02;;;4.30;;
52838;SDS011;39219;53.678;9.856;2023-02-03T04:38:38;14.77;;;4.70;;
52838;SDS011;39219;53.678;9.856;2023-02-03T04:41:04;12.10;;;4.50;;
52838;SDS011;39219;53.678;9.856;2023-02-03T04:43:30;11.75;;;4.40;;
52838;SDS011;39219;53.678;9.856;2023-02-03T04:45:57;10.55;;;4.65;;
52838;SDS011;39219;53.678;9.856;2023-02-03T04:48:25;16.30;;;5.22;;
52838;SDS011;39219;53.678;9.856;2023-02-03T04:50:51;12.23;;;4.95;;
52838;SDS011;39219;53.678;9.856;2023-02-03T04:53:18;11.60;;;5.30;;
52838;SDS011;39219;53.678;9.856;2023-02-03T04:55:45;12.07;;;5.30;;
52838;SDS011;39219;53.678;9.856;2023-02-03T04:58:11;14.48;;;5.47;;
52838;SDS011;39219;53.678;9.856;2023-02-03T05:00:37;14.25;;;6.00;;
52838;SDS011;39219;53.678;9.856;2023-02-03T05:03:04;14.35;;;5.93;;
52838;SDS011;39219;53.678;9.856;2023-02-03T05:05:31;13.10;;;5.78;;
52838;SDS011;39219;53.678;9.856;2023-02-03T05:07:57;13.65;;;5.88;;
52838;SDS011;39219;53.678;9.856;2023-02-03T05:10:24;13.80;;;6.20;;
52838;SDS011;39219;53.678;9.856;2023-02-03T05:12:50;14.25;;;5.78;;
52838;SDS011;39219;53.678;9.856;2023-02-03T05:15:16;15.63;;;6.10;;
52838;SDS011;39219;53.678;9.856;2023-02-03T05:17:42;17.05;;;6.18;;
52838;SDS011;39219;53.678;9.856;2023-02-03T05:20:09;14.07;;;5.78;;
52838;SDS011;39219;53.678;9.856;2023-02-03T05:22:37;12.80;;;5.88;;
52838;SDS011;39219;53.678;9.856;2023-02-03T05:25:03;16.73;;;5.97;;
52838;SDS011;39219;53.678;9.856;2023-02-03T05:27:30;17.38;;;6.00;;
52838;SDS011;39219;53.678;9.856;2023-02-03T05:29:56;13.65;;;5.78;;
52838;SDS011;39219;53.678;9.856;2023-02-03T05:32:22;13.68;;;5.32;;
52838;SDS011;39219;53.678;9.856;2023-02-03T05:34:49;12.35;;;5.18;;
52838;SDS011;39219;53.678;9.856;2023-02-03T05:37:15;15.85;;;5.78;;
52838;SDS011;39219;53.678;9.856;2023-02-03T05:39:43;13.10;;;5.40;;
52838;SDS011;39219;53.678;9.856;2023-02-03T05:42:09;12.68;;;4.90;;
52838;SDS011;39219;53.678;9.856;2023-02-03T05:44:35;11.88;;;4.60;;
52838;SDS011;39219;53.678;9.856;2023-02-03T05:47:01;15.05;;;4.82;;
52838;SDS011;39219;53.678;9.856;2023-02-03T05:49:27;11.65;;;4.63;;
52838;SDS011;39219;53.678;9.856;2023-02-03T05:51:54;15.88;;;4.75;;
52838;SDS011;39219;53.678;9.856;2023-02-03T05:54:20;10.18;;;4.28;;
52838;SDS011;39219;53.678;9.856;2023-02-03T05:56:48;12.82;;;4.45;;
52838;SDS011;39219;53.678;9.856;2023-02-03T05:59:14;12.60;;;4.45;;
52838;SDS011;39219;53.678;9.856;2023-02-03T06:01:41;16.98;;;5.20;;
52838;SDS011;39219;53.678;9.856;2023-02-03T06:04:07;12.70;;;4.65;;
52838;SDS011;39219;53.678;9.856;2023-02-03T06:06:33;13.95;;;4.35;;
52838;SDS011;39219;53.678;9.856;2023-02-03T06:09:00;15.73;;;4.80;;
52838;SDS011;39219;53.678;9.856;2023-02-03T06:11:26;15.05;;;4.82;;
52838;SDS011;39219;53.678;9.856;2023-02-03T06:13:55;15.15;;;4.38;;
52838;SDS011;39219;53.678;9.856;2023-02-03T06:16:22;15.43;;;4.57;;
52838;SDS011;39219;53.678;9.856;2023-02-03T06:18:49;14.32;;;4.55;;
52838;SDS011;39219;53.678;9.856;2023-02-03T06:21:15;13.52;;;4.18;;
52838;SDS011;39219;53.678;9.856;2023-02-03T06:23:41;15.20;;;4.80;;
52838;SDS011;39219;53.678;9.856;2023-02-03T06:26:08;12.18;;;4.10;;
52838;SDS011;39219;53.678;9.856;2023-02-03T06:28:34;15.25;;;4.50;;
52838;SDS011;39219;53.678;9.856;2023-02-03T06:31:03;12.68;;;4.43;;
52838;SDS011;39219;53.678;9.856;2023-02-03T06:33:30;10.65;;;4.60;;
52838;SDS011;39219;53.678;9.856;2023-02-03T06:35:56;16.92;;;4.80;;
52838;SDS011;39219;53.678;9.856;2023-02-03T06:38:22;12.32;;;4.57;;
52838;SDS011;39219;53.678;9.856;2023-02-03T06:40:48;19.38;;;5.40;;
52838;SDS011;39219;53.678;9.856;2023-02-03T06:43:15;18.42;;;4.38;;
52838;SDS011;39219;53.678;9.856;2023-02-03T06:45:43;14.18;;;4.45;;
52838;SDS011;39219;53.678;9.856;2023-02-03T06:48:11;15.60;;;4.82;;
52838;SDS011;39219;53.678;9.856;2023-02-03T06:50:38;21.88;;;5.47;;
52838;SDS011;39219;53.678;9.856;2023-02-03T06:53:04;18.70;;;5.13;;
52838;SDS011;39219;53.678;9.856;2023-02-03T06:55:30;15.20;;;4.40;;
52838;SDS011;39219;53.678;9.856;2023-02-03T06:57:56;19.88;;;4.85;;
52838;SDS011;39219;53.678;9.856;2023-02-03T07:00:23;20.80;;;4.35;;
52838;SDS011;39219;53.678;9.856;2023-02-03T07:02:51;16.58;;;4.70;;
52838;SDS011;39219;53.678;9.856;2023-02-03T07:05:19;18.00;;;5.03;;
52838;SDS011;39219;53.678;9.856;2023-02-03T07:07:45;14.63;;;4.53;;
52838;SDS011;39219;53.678;9.856;2023-02-03T07:10:12;20.92;;;4.25;;
52838;SDS011;39219;53.678;9.856;2023-02-03T07:12:38;14.93;;;4.43;;
52838;SDS011;39219;53.678;9.856;2023-02-03T07:15:04;17.83;;;4.40;;
52838;SDS011;39219;53.678;9.856;2023-02-03T07:17:31;20.50;;;4.57;;
52838;SDS011;39219;53.678;9.856;2023-02-03T07:19:57;18.73;;;4.72;;
52838;SDS011;39219;53.678;9.856;2023-02-03T07:22:25;13.27;;;3.95;;
52838;SDS011;39219;53.678;9.856;2023-02-03T07:24:51;18.10;;;4.22;;
52838;SDS011;39219;53.678;9.856;2023-02-03T07:27:17;15.77;;;4.32;;
52838;SDS011;39219;53.678;9.856;2023-02-03T07:29:44;18.65;;;4.40;;
52838;SDS011;39219;53.678;9.856;2023-02-03T07:32:10;19.20;;;3.97;;
52838;SDS011;39219;53.678;9.856;2023-02-03T07:34:36;15.98;;;3.67;;
52838;SDS011;39219;53.678;9.856;2023-02-03T07:37:03;17.48;;;4.20;;
52838;SDS011;39219;53.678;9.856;2023-02-03T07:39:30;18.80;;;3.63;;
52838;SDS011;39219;53.678;9.856;2023-02-03T07:41:57;19.77;;;4.20;;
52838;SDS011;39219;53.678;9.856;2023-02-03T07:44:23;21.58;;;3.80;;
52838;SDS011;39219;53.678;9.856;2023-02-03T07:46:49;15.15;;;3.70;;
52838;SDS011;39219;53.678;9.856;2023-02-03T07:49:15;12.65;;;3.40;;
52838;SDS011;39219;53.678;9.856;2023-02-03T07:51:42;19.10;;;3.60;;
52838;SDS011;39219;53.678;9.856;2023-02-03T07:54:08;14.95;;;4.03;;
52838;SDS011;39219;53.678;9.856;2023-02-03T07:56:36;17.48;;;3.78;;
52838;SDS011;39219;53.678;9.856;2023-02-03T07:59:02;20.58;;;3.88;;
52838;SDS011;39219;53.678;9.856;2023-02-03T08:01:28;17.65;;;4.18;;
52838;SDS011;39219;53.678;9.856;2023-02-03T08:03:55;22.67;;;4.35;;
52838;SDS011;39219;53.678;9.856;2023-02-03T08:06:21;21.88;;;4.82;;
52838;SDS011;39219;53.678;9.856;2023-02-03T08:08:47;23.73;;;4.38;;
52838;SDS011;39219;53.678;9.856;2023-02-03T08:11:14;21.67;;;3.80;;
52838;SDS011;39219;53.678;9.856;2023-02-03T08:13:41;23.85;;;4.13;;
52838;SDS011;39219;53.678;9.856;2023-02-03T08:16:08;24.27;;;3.90;;
52838;SDS011;39219;53.678;9.856;2023-02-03T08:18:34;19.30;;;4.22;;
52838;SDS011;39219;53.678;9.856;2023-02-03T08:21:00;22.85;;;4.22;;
52838;SDS011;39219;53.678;9.856;2023-02-03T08:23:28;22.60;;;4.53;;
52838;SDS011;39219;53.678;9.856;2023-02-03T08:25:54;20.13;;;3.72;;
52838;SDS011;39219;53.678;9.856;2023-02-03T08:28:20;17.83;;;3.85;;
52838;SDS011;39219;53.678;9.856;2023-02-03T08:30:48;23.08;;;3.85;;
52838;SDS011;39219;53.678;9.856;2023-02-03T08:33:14;20.13;;;4.00;;
52838;SDS011;39219;53.678;9.856;2023-02-03T08:35:43;24.50;;;4.30;;
52838;SDS011;39219;53.678;9.856;2023-02-03T08:38:10;21.75;;;4.22;;
52838;SDS011;39219;53.678;9.856;2023-02-03T08:40:36;24.38;;;4.18;;
52838;SDS011;39219;53.678;9.856;2023-02-03T08:43:03;25.45;;;4.93;;
52838;SDS011;39219;53.678;9.856;2023-02-03T08:45:29;27.05;;;4.82;;
52838;SDS011;39219;53.678;9.856;2023-02-03T08:47:57;23.77;;;4.35;;
52838;SDS011;39219;53.678;9.856;2023-02-03T08:50:23;23.38;;;4.47;;
52838;SDS011;39219;53.678;9.856;2023-02-03T08:52:49;30.30;;;4.88;;
52838;SDS011;39219;53.678;9.856;2023-02-03T08:55:16;25.80;;;4.38;;
52838;SDS011;39219;53.678;9.856;2023-02-03T08:57:42;26.77;;;5.22;;
52838;SDS011;39219;53.678;9.856;2023-02-03T09:00:09;29.63;;;5.45;;
52838;SDS011;39219;53.678;9.856;2023-02-03T09:02:35;31.23;;;5.05;;
52838;SDS011;39219;53.678;9.856;2023-02-03T09:05:03;25.20;;;4.90;;
52838;SDS011;39219;53.678;9.856;2023-02-03T09:07:30;25.50;;;4.47;;
52838;SDS011;39219;53.678;9.856;2023-02-03T09:09:56;32.45;;;5.05;;
52838;SDS011;39219;53.678;9.856;2023-02-03T09:12:22;32.08;;;5.30;;
52838;SDS011;39219;53.678;9.856;2023-02-03T09:14:48;22.55;;;4.85;;
52838;SDS011;39219;53.678;9.856;2023-02-03T09:17:15;30.90;;;5.30;;
52838;SDS011;39219;53.678;9.856;2023-02-03T09:19:41;32.08;;;5.28;;
52838;SDS011;39219;53.678;9.856;2023-02-03T09:22:09;32.78;;;5.57;;
52838;SDS011;39219;53.678;9.856;2023-02-03T09:24:35;30.13;;;5.25;;
52838;SDS011;39219;53.678;9.856;2023-02-03T09:27:01;31.60;;;5.38;;
52838;SDS011;39219;53.678;9.856;2023-02-03T09:29:27;36.70;;;5.60;;
52838;SDS011;39219;53.678;9.856;2023-02-03T09:31:54;36.75;;;6.40;;
52838;SDS011;39219;53.678;9.856;2023-02-03T09:34:20;33.10;;;6.30;;
52838;SDS011;39219;53.678;9.856;2023-02-03T09:36:46;31.75;;;6.10;;
52838;SDS011;39219;53.678;9.856;2023-02-03T09:39:14;35.10;;;5.72;;
52838;SDS011;39219;53.678;9.856;2023-02-03T09:41:50;35.22;;;6.15;;
52838;SDS011;39219;53.678;9.856;2023-02-03T09:44:21;37.50;;;6.05;;
52838;SDS011;39219;53.678;9.856;2023-02-03T09:46:50;43.92;;;6.18;;
52838;SDS011;39219;53.678;9.856;2023-02-03T09:49:21;35.53;;;5.93;;
52838;SDS011;39219;53.678;9.856;2023-02-03T09:51:49;33.63;;;5.88;;
52838;SDS011;39219;53.678;9.856;2023-02-03T09:54:19;36.00;;;6.15;;
52838;SDS011;39219;53.678;9.856;2023-02-03T09:56:46;44.05;;;6.72;;
52838;SDS011;39219;53.678;9.856;2023-02-03T09:59:16;37.70;;;6.78;;
52838;SDS011;39219;53.678;9.856;2023-02-03T10:01:44;40.40;;;6.95;;
52838;SDS011;39219;53.678;9.856;2023-02-03T10:04:15;41.03;;;7.32;;
52838;SDS011;39219;53.678;9.856;2023-02-03T10:06:47;39.13;;;7.20;;
52838;SDS011;39219;53.678;9.856;2023-02-03T10:09:24;42.08;;;6.72;;
52838;SDS011;39219;53.678;9.856;2023-02-03T10:11:54;34.90;;;6.75;;
52838;SDS011;39219;53.678;9.856;2023-02-03T10:14:32;36.88;;;6.50;;
52838;SDS011;39219;53.678;9.856;2023-02-03T10:17:05;41.58;;;7.07;;
52838;SDS011;39219;53.678;9.856;2023-02-03T10:19:35;42.60;;;6.82;;
52838;SDS011;39219;53.678;9.856;2023-02-03T10:22:03;44.85;;;7.10;;
52838;SDS011;39219;53.678;9.856;2023-02-03T10:24:34;37.38;;;6.78;;
52838;SDS011;39219;53.678;9.856;2023-02-03T10:27:03;47.60;;;7.45;;
52838;SDS011;39219;53.678;9.856;2023-02-03T10:29:30;38.83;;;7.25;;
52838;SDS011;39219;53.678;9.856;2023-02-03T10:31:59;36.45;;;7.13;;
52838;SDS011;39219;53.678;9.856;2023-02-03T10:34:26;33.75;;;7.30;;
52838;SDS011;39219;53.678;9.856;2023-02-03T10:36:53;37.97;;;7.40;;
52838;SDS011;39219;53.678;9.856;2023-02-03T10:39:23;45.20;;;7.40;;
52838;SDS011;39219;53.678;9.856;2023-02-03T10:41:53;33.20;;;6.20;;
52838;SDS011;39219;53.678;9.856;2023-02-03T10:44:20;32.97;;;6.93;;
52838;SDS011;39219;53.678;9.856;2023-02-03T10:46:48;38.17;;;6.72;;
52838;SDS011;39219;53.678;9.856;2023-02-03T10:49:14;51.83;;;7.22;;
52838;SDS011;39219;53.678;9.856;2023-02-03T10:51:43;38.03;;;7.03;;
52838;SDS011;39219;53.678;9.856;2023-02-03T10:54:28;32.35;;;5.75;;
52838;SDS011;39219;53.678;9.856;2023-02-03T10:57:02;38.65;;;6.47;;
52838;SDS011;39219;53.678;9.856;2023-02-03T10:59:29;31.02;;;6.05;;
52838;SDS011;39219;53.678;9.856;2023-02-03T11:01:56;37.80;;;6.32;;
52838;SDS011;39219;53.678;9.856;2023-02-03T11:04:24;36.42;;;7.03;;
52838;SDS011;39219;53.678;9.856;2023-02-03T11:06:52;39.13;;;7.10;;
52838;SDS011;39219;53.678;9.856;2023-02-03T11:09:20;38.42;;;6.00;;
52838;SDS011;39219;53.678;9.856;2023-02-03T11:11:49;40.15;;;6.53;;
52838;SDS011;39219;53.678;9.856;2023-02-03T11:14:28;33.72;;;6.70;;
52838;SDS011;39219;53.678;9.856;2023-02-03T11:17:04;41.00;;;6.13;;
52838;SDS011;39219;53.678;9.856;2023-02-03T11:19:31;33.42;;;6.53;;
52838;SDS011;39219;53.678;9.856;2023-02-03T11:21:58;29.55;;;5.85;;
52838;SDS011;39219;53.678;9.856;2023-02-03T11:24:25;25.33;;;5.30;;
52838;SDS011;39219;53.678;9.856;2023-02-03T11:26:53;34.45;;;6.05;;
52838;SDS011;39219;53.678;9.856;2023-02-03T11:29:21;33.80;;;6.00;;
52838;SDS011;39219;53.678;9.856;2023-02-03T11:31:50;32.08;;;5.30;;
52838;SDS011;39219;53.678;9.856;2023-02-03T11:34:17;29.48;;;5.40;;
52838;SDS011;39219;53.678;9.856;2023-02-03T11:36:44;33.70;;;5.90;;
52838;SDS011;39219;53.678;9.856;2023-02-03T11:39:15;30.75;;;5.65;;
52838;SDS011;39219;53.678;9.856;2023-02-03T11:41:42;33.22;;;6.28;;
52838;SDS011;39219;53.678;9.856;2023-02-03T11:44:10;37.17;;;6.47;;
52838;SDS011;39219;53.678;9.856;2023-02-03T11:46:36;34.80;;;5.93;;
52838;SDS011;39219;53.678;9.856;2023-02-03T11:49:07;37.80;;;7.20;;
52838;SDS011;39219;53.678;9.856;2023-02-03T11:51:37;38.33;;;6.53;;
52838;SDS011;39219;53.678;9.856;2023-02-03T11:54:12;37.88;;;5.68;;
52838;SDS011;39219;53.678;9.856;2023-02-03T11:56:47;32.25;;;5.63;;
52838;SDS011;39219;53.678;9.856;2023-02-03T11:59:22;31.52;;;5.50;;
52838;SDS011;39219;53.678;9.856;2023-02-03T12:02:06;35.75;;;5.80;;
52838;SDS011;39219;53.678;9.856;2023-02-03T12:07:30;29.50;;;5.50;;
52838;SDS011;39219;53.678;9.856;2023-02-03T12:09:59;34.95;;;5.55;;
52838;SDS011;39219;53.678;9.856;2023-02-03T12:12:37;29.65;;;6.15;;
52838;SDS011;39219;53.678;9.856;2023-02-03T12:15:14;34.38;;;5.53;;
52838;SDS011;39219;53.678;9.856;2023-02-03T12:17:48;35.60;;;6.22;;
52838;SDS011;39219;53.678;9.856;2023-02-03T12:20:31;29.15;;;5.45;;
52838;SDS011;39219;53.678;9.856;2023-02-03T12:23:02;25.85;;;5.80;;
52838;SDS011;39219;53.678;9.856;2023-02-03T12:25:34;33.25;;;5.47;;
52838;SDS011;39219;53.678;9.856;2023-02-03T12:28:04;38.72;;;5.72;;
52838;SDS011;39219;53.678;9.856;2023-02-03T12:30:36;27.48;;;6.10;;
52838;SDS011;39219;53.678;9.856;2023-02-03T12:33:05;29.98;;;5.75;;
52838;SDS011;39219;53.678;9.856;2023-02-03T12:35:37;28.55;;;5.45;;
52838;SDS011;39219;53.678;9.856;2023-02-03T12:38:06;31.95;;;5.80;;
52838;SDS011;39219;53.678;9.856;2023-02-03T12:40:35;33.42;;;6.18;;
52838;SDS011;39219;53.678;9.856;2023-02-03T12:43:10;33.60;;;5.47;;
52838;SDS011;39219;53.678;9.856;2023-02-03T12:45:38;32.95;;;5.72;;
52838;SDS011;39219;53.678;9.856;2023-02-03T12:48:05;34.15;;;5.88;;
52838;SDS011;39219;53.678;9.856;2023-02-03T12:50:36;30.35;;;5.10;;
52838;SDS011;39219;53.678;9.856;2023-02-03T12:53:08;25.20;;;5.20;;
52838;SDS011;39219;53.678;9.856;2023-02-03T12:55:36;30.48;;;5.30;;
52838;SDS011;39219;53.678;9.856;2023-02-03T12:58:04;28.90;;;5.45;;
52838;SDS011;39219;53.678;9.856;2023-02-03T13:00:37;34.22;;;5.65;;
52838;SDS011;39219;53.678;9.856;2023-02-03T13:03:18;20.92;;;5.05;;
52838;SDS011;39219;53.678;9.856;2023-02-03T13:05:50;30.55;;;5.65;;
52838;SDS011;39219;53.678;9.856;2023-02-03T13:08:26;28.17;;;5.20;;
52838;SDS011;39219;53.678;9.856;2023-02-03T13:10:55;22.48;;;4.93;;
52838;SDS011;39219;53.678;9.856;2023-02-03T13:13:25;29.15;;;4.85;;
52838;SDS011;39219;53.678;9.856;2023-02-03T13:15:54;26.20;;;4.88;;
52838;SDS011;39219;53.678;9.856;2023-02-03T13:18:23;29.02;;;5.10;;
52838;SDS011;39219;53.678;9.856;2023-02-03T13:20:52;27.02;;;4.78;;
52838;SDS011;39219;53.678;9.856;2023-02-03T13:23:18;21.88;;;4.30;;
52838;SDS011;39219;53.678;9.856;2023-02-03T13:25:50;29.55;;;4.70;;
52838;SDS011;39219;53.678;9.856;2023-02-03T13:28:22;31.08;;;4.88;;
52838;SDS011;39219;53.678;9.856;2023-02-03T13:31:04;34.22;;;5.68;;
52838;SDS011;39219;53.678;9.856;2023-02-03T13:33:41;30.38;;;5.10;;
52838;SDS011;39219;53.678;9.856;2023-02-03T13:39:03;32.22;;;5.90;;
52838;SDS011;39219;53.678;9.856;2023-02-03T13:41:36;28.83;;;5.05;;
52838;SDS011;39219;53.678;9.856;2023-02-03T13:44:04;27.38;;;5.53;;
52838;SDS011;39219;53.678;9.856;2023-02-03T13:46:31;26.70;;;5.15;;
52838;SDS011;39219;53.678;9.856;2023-02-03T13:48:58;33.38;;;5.07;;
52838;SDS011;39219;53.678;9.856;2023-02-03T13:51:25;37.63;;;5.50;;
52838;SDS011;39219;53.678;9.856;2023-02-03T13:53:58;30.70;;;4.80;;
52838;SDS011;39219;53.678;9.856;2023-02-03T13:56:25;30.08;;;5.28;;
52838;SDS011;39219;53.678;9.856;2023-02-03T13:59:04;29.48;;;5.72;;
52838;SDS011;39219;53.678;9.856;2023-02-03T14:01:32;32.67;;;6.45;;
52838;SDS011;39219;53.678;9.856;2023-02-03T14:03:59;26.65;;;5.38;;
52838;SDS011;39219;53.678;9.856;2023-02-03T14:09:33;29.50;;;5.20;;
52838;SDS011;39219;53.678;9.856;2023-02-03T14:12:11;29.80;;;5.55;;
52838;SDS011;39219;53.678;9.856;2023-02-03T14:14:43;33.08;;;6.00;;
52838;SDS011;39219;53.678;9.856;2023-02-03T14:19:54;33.78;;;5.60;;
52838;SDS011;39219;53.678;9.856;2023-02-03T14:22:20;33.95;;;5.20;;
52838;SDS011;39219;53.678;9.856;2023-02-03T14:24:47;30.55;;;5.18;;
52838;SDS011;39219;53.678;9.856;2023-02-03T14:27:15;29.00;;;4.93;;
52838;SDS011;39219;53.678;9.856;2023-02-03T14:29:43;31.48;;;5.57;;
52838;SDS011;39219;53.678;9.856;2023-02-03T14:32:10;28.67;;;6.10;;
52838;SDS011;39219;53.678;9.856;2023-02-03T14:34:37;28.95;;;5.28;;
52838;SDS011;39219;53.678;9.856;2023-02-03T14:37:12;39.38;;;5.97;;
52838;SDS011;39219;53.678;9.856;2023-02-03T14:42:34;36.88;;;5.93;;
52838;SDS011;39219;53.678;9.856;2023-02-03T14:45:08;43.33;;;6.72;;
52838;SDS011;39219;53.678;9.856;2023-02-03T14:47:41;35.80;;;5.70;;
52838;SDS011;39219;53.678;9.856;2023-02-03T14:50:14;35.25;;;6.13;;
52838;SDS011;39219;53.678;9.856;2023-02-03T14:52:53;33.95;;;5.78;;
52838;SDS011;39219;53.678;9.856;2023-02-03T14:58:14;35.78;;;5.70;;
52838;SDS011;39219;53.678;9.856;2023-02-03T15:00:43;32.50;;;5.65;;